createdAt,value
2022-07-26T00:01:32.389Z,25.20
2022-07-26T00:04:00.053Z,25.30
2022-07-26T00:06:27.951Z,24.90
2022-07-26T00:08:55.575Z,25.20
2022-07-26T00:11:23.757Z,25.00
2022-07-26T00:13:51.074Z,25.10
2022-07-26T00:16:18.520Z,25.20
2022-07-26T00:18:47.468Z,24.90
2022-07-26T00:21:14.700Z,24.70
2022-07-26T00:23:42.191Z,25.10
2022-07-26T00:26:09.399Z,25.10
2022-07-26T00:28:36.745Z,25.10
2022-07-26T00:31:04.616Z,25.30
2022-07-26T00:33:31.851Z,25.30
2022-07-26T00:35:59.053Z,25.30
2022-07-26T00:38:26.326Z,25.40
2022-07-26T00:40:53.545Z,25.30
2022-07-26T00:43:20.829Z,25.00
2022-07-26T00:45:48.188Z,25.20
2022-07-26T00:48:15.643Z,25.20
2022-07-26T00:50:42.979Z,25.30
2022-07-26T00:53:10.376Z,25.00
2022-07-26T00:55:37.608Z,24.90
2022-07-26T00:58:06.376Z,24.70
2022-07-26T01:00:33.740Z,25.10
2022-07-26T01:03:00.970Z,25.00
2022-07-26T01:05:28.620Z,24.90
2022-07-26T01:07:55.941Z,25.00
2022-07-26T01:10:23.201Z,24.80
2022-07-26T01:12:50.757Z,24.70
2022-07-26T01:15:18.497Z,24.50
2022-07-26T01:17:48.183Z,24.80
2022-07-26T01:20:33.678Z,24.90
2022-07-26T01:23:18.948Z,24.60
2022-07-26T01:25:46.281Z,24.50
2022-07-26T01:28:19.753Z,24.90
2022-07-26T01:31:12.207Z,24.90
2022-07-26T01:34:04.106Z,25.00
2022-07-26T01:36:49.571Z,24.80
2022-07-26T01:39:19.476Z,24.60
2022-07-26T01:41:46.665Z,24.40
2022-07-26T01:44:34.680Z,24.10
2022-07-26T01:50:20.562Z,24.10
2022-07-26T01:52:47.799Z,23.90
2022-07-26T01:55:15.045Z,24.30
2022-07-26T01:57:44.387Z,24.50
2022-07-26T02:00:12.121Z,24.70
2022-07-26T02:02:39.498Z,24.40
2022-07-26T02:05:08.049Z,24.30
2022-07-26T02:07:43.038Z,24.50
2022-07-26T02:13:18.750Z,24.80
2022-07-26T02:16:25.397Z,24.40
2022-07-26T02:19:07.505Z,24.30
2022-07-26T02:21:36.460Z,24.40
2022-07-26T02:24:14.378Z,24.60
2022-07-26T02:26:52.433Z,24.20
2022-07-26T02:29:34.965Z,24.40
2022-07-26T02:32:03.643Z,24.60
2022-07-26T02:34:44.712Z,24.60
2022-07-26T02:37:29.385Z,24.60
2022-07-26T02:40:19.488Z,24.30
2022-07-26T02:42:51.336Z,24.30
2022-07-26T02:45:18.575Z,24.50
2022-07-26T02:47:47.653Z,24.30
2022-07-26T02:50:18.238Z,24.20
2022-07-26T02:52:47.975Z,24.50
2022-07-26T02:55:16.767Z,24.40
2022-07-26T02:57:46.513Z,24.40
2022-07-26T03:00:20.439Z,24.10
2022-07-26T03:02:49.296Z,24.10
2022-07-26T03:05:16.672Z,24.20
2022-07-26T03:07:43.893Z,24.30
2022-07-26T03:10:11.319Z,24.40
2022-07-26T03:12:38.540Z,24.50
2022-07-26T03:15:06.700Z,24.50
2022-07-26T03:17:33.925Z,24.60
2022-07-26T03:20:02.387Z,24.50
2022-07-26T03:22:29.613Z,24.40
2022-07-26T03:24:56.891Z,24.60
2022-07-26T03:27:24.159Z,24.40
2022-07-26T03:29:51.335Z,24.60
2022-07-26T03:32:18.528Z,24.70
2022-07-26T03:34:45.719Z,24.60
2022-07-26T03:37:12.966Z,24.60
2022-07-26T03:39:40.601Z,24.30
2022-07-26T03:42:07.932Z,24.30
2022-07-26T03:44:35.219Z,24.30
2022-07-26T03:47:02.439Z,24.10
2022-07-26T03:49:29.995Z,24.00
2022-07-26T03:51:57.317Z,23.60
2022-07-26T03:54:24.684Z,23.50
2022-07-26T03:56:51.959Z,23.70
2022-07-26T03:59:19.222Z,23.80
2022-07-26T04:01:47.347Z,23.60
2022-07-26T04:04:18.025Z,23.80
2022-07-26T04:06:47.356Z,23.70
2022-07-26T04:09:15.405Z,23.50
2022-07-26T04:11:43.263Z,23.60
2022-07-26T04:14:11.445Z,23.70
2022-07-26T04:16:43.464Z,23.70
2022-07-26T04:19:11.123Z,23.70
2022-07-26T04:21:38.356Z,23.40
2022-07-26T04:24:05.897Z,23.60
2022-07-26T04:26:33.292Z,23.60
2022-07-26T04:29:00.583Z,23.70
2022-07-26T04:31:27.811Z,23.60
2022-07-26T04:34:02.109Z,23.60
2022-07-26T04:36:29.289Z,23.40
2022-07-26T04:38:56.472Z,23.30
2022-07-26T04:41:23.652Z,23.20
2022-07-26T04:43:50.837Z,23.20
2022-07-26T04:46:19.329Z,23.20
2022-07-26T04:48:46.669Z,23.30
2022-07-26T04:51:13.983Z,22.80
2022-07-26T04:53:41.171Z,22.40
2022-07-26T04:56:08.833Z,22.70
2022-07-26T04:58:36.089Z,22.50
2022-07-26T05:01:10.035Z,23.10
2022-07-26T05:03:38.713Z,23.00
2022-07-26T05:06:06.271Z,22.70
2022-07-26T05:08:33.496Z,23.10
2022-07-26T05:11:00.766Z,23.00
2022-07-26T05:13:29.698Z,22.90
2022-07-26T05:15:59.421Z,23.00
2022-07-26T05:18:26.875Z,23.00
2022-07-26T05:20:54.264Z,23.20
2022-07-26T05:23:21.528Z,23.30
2022-07-26T05:25:48.706Z,23.30
2022-07-26T05:28:15.863Z,23.40
2022-07-26T05:30:43.091Z,23.10
2022-07-26T05:33:10.295Z,23.30
2022-07-26T05:35:41.578Z,23.10
2022-07-26T05:38:08.808Z,23.10
2022-07-26T05:40:36.031Z,23.00
2022-07-26T05:43:04.648Z,22.90
2022-07-26T05:45:31.997Z,23.10
2022-07-26T05:47:59.200Z,23.40
2022-07-26T05:50:26.486Z,23.60
2022-07-26T05:52:54.094Z,23.40
2022-07-26T05:55:21.460Z,23.40
2022-07-26T05:57:49.521Z,23.40
2022-07-26T06:00:17.382Z,23.50
2022-07-26T06:02:44.641Z,23.50
2022-07-26T06:05:11.875Z,23.80
2022-07-26T06:07:39.105Z,23.70
2022-07-26T06:10:06.722Z,23.90
2022-07-26T06:12:33.933Z,24.10
2022-07-26T06:15:01.145Z,23.90
2022-07-26T06:17:31.152Z,23.80
2022-07-26T06:19:59.094Z,23.70
2022-07-26T06:22:26.487Z,24.20
2022-07-26T06:24:53.779Z,24.20
2022-07-26T06:27:20.972Z,24.50
2022-07-26T06:29:49.138Z,24.10
2022-07-26T06:32:16.389Z,23.40
2022-07-26T06:34:43.619Z,23.50
2022-07-26T06:37:10.829Z,23.50
2022-07-26T06:39:38.044Z,23.70
2022-07-26T06:42:05.309Z,23.20
2022-07-26T06:44:32.515Z,23.50
2022-07-26T06:46:59.708Z,23.90
2022-07-26T06:49:26.981Z,24.10
2022-07-26T06:51:54.195Z,24.30
2022-07-26T06:54:21.377Z,24.40
2022-07-26T06:56:48.571Z,24.20
2022-07-26T06:59:15.791Z,23.90
2022-07-26T07:01:51.705Z,24.10
2022-07-26T07:04:30.303Z,24.20
2022-07-26T07:07:02.307Z,24.10
2022-07-26T07:09:38.290Z,24.30
2022-07-26T07:12:23.167Z,24.60
2022-07-26T07:15:00.698Z,24.00
2022-07-26T07:17:29.985Z,23.60
2022-07-26T07:19:57.298Z,24.10
2022-07-26T07:22:24.544Z,24.00
2022-07-26T07:24:51.828Z,24.00
2022-07-26T07:27:28.893Z,23.30
2022-07-26T07:29:57.375Z,23.50
2022-07-26T07:32:25.541Z,23.50
2022-07-26T07:35:12.895Z,23.70
2022-07-26T07:37:53.016Z,23.40
2022-07-26T07:40:22.762Z,23.40
2022-07-26T07:42:59.409Z,22.60
2022-07-26T07:45:38.436Z,23.40
2022-07-26T07:48:05.910Z,23.20
2022-07-26T07:50:33.503Z,24.10
2022-07-26T07:53:02.111Z,24.20
2022-07-26T07:55:40.723Z,24.10
2022-07-26T07:58:11.890Z,23.50
2022-07-26T08:00:39.126Z,23.40
2022-07-26T08:03:06.414Z,24.40
2022-07-26T08:05:33.738Z,25.70
2022-07-26T08:08:01.015Z,26.70
2022-07-26T08:10:29.291Z,26.90
2022-07-26T08:12:56.509Z,26.80
2022-07-26T08:15:23.820Z,26.10
2022-07-26T08:17:54.650Z,25.50
2022-07-26T08:20:23.682Z,25.20
2022-07-26T08:22:52.932Z,25.40
2022-07-26T08:25:20.475Z,25.70
2022-07-26T08:28:02.543Z,27.40
2022-07-26T08:30:30.748Z,28.00
2022-07-26T08:32:57.973Z,28.70
2022-07-26T08:35:25.183Z,28.20
2022-07-26T08:37:52.393Z,29.60
2022-07-26T08:40:19.633Z,28.00
2022-07-26T08:42:54.639Z,30.30
2022-07-26T08:45:30.848Z,31.70
2022-07-26T08:50:46.421Z,30.20
2022-07-26T08:53:13.769Z,28.80
2022-07-26T08:58:28.197Z,28.80
2022-07-26T09:01:12.765Z,29.10
2022-07-26T09:03:40.677Z,26.30
2022-07-26T09:06:26.290Z,27.00
2022-07-26T09:09:11.322Z,28.90
2022-07-26T09:11:38.793Z,29.00
2022-07-26T09:14:07.164Z,29.60
2022-07-26T09:16:39.206Z,28.90
2022-07-26T09:19:16.838Z,28.20
2022-07-26T09:21:44.274Z,26.10
2022-07-26T09:24:11.816Z,26.00
2022-07-26T09:26:39.392Z,26.20
2022-07-26T09:29:12.043Z,26.20
2022-07-26T09:31:40.316Z,25.70
2022-07-26T09:34:08.398Z,26.00
2022-07-26T09:36:51.610Z,25.90
2022-07-26T09:39:27.757Z,26.10
2022-07-26T09:42:27.558Z,27.00
2022-07-26T09:44:56.911Z,26.30
2022-07-26T09:47:45.209Z,26.40
2022-07-26T09:50:45.540Z,26.50
2022-07-26T09:53:16.685Z,26.80
2022-07-26T09:56:10.388Z,26.60
2022-07-26T09:59:04.720Z,26.00
2022-07-26T10:01:32.174Z,26.30
2022-07-26T10:04:00.325Z,25.90
2022-07-26T10:06:30.510Z,26.20
2022-07-26T10:08:58.366Z,26.10
2022-07-26T10:11:39.743Z,25.60
2022-07-26T10:14:42.606Z,25.30
2022-07-26T10:17:47.207Z,25.30
2022-07-26T10:23:53.411Z,25.20
2022-07-26T10:26:49.835Z,25.60
2022-07-26T10:29:17.084Z,26.00
2022-07-26T10:32:00.610Z,26.10
2022-07-26T10:34:39.554Z,24.70
2022-07-26T10:37:09.227Z,24.90
2022-07-26T10:39:37.043Z,25.10
2022-07-26T10:42:09.574Z,25.60
2022-07-26T10:44:39.435Z,25.30
2022-07-26T10:47:11.372Z,25.90
2022-07-26T10:49:39.418Z,26.10
2022-07-26T10:52:12.499Z,26.40
2022-07-26T10:55:00.805Z,26.10
2022-07-26T10:57:30.597Z,26.50
2022-07-26T10:59:58.785Z,26.20
2022-07-26T11:02:28.964Z,26.60
2022-07-26T11:05:14.228Z,26.20
2022-07-26T11:08:01.504Z,26.50
2022-07-26T11:10:34.125Z,26.80
2022-07-26T11:13:17.401Z,27.10
2022-07-26T11:15:59.376Z,26.60
2022-07-26T11:18:30.724Z,25.80
2022-07-26T11:21:07.906Z,26.00
2022-07-26T11:23:36.642Z,26.30
2022-07-26T11:26:19.660Z,25.90
2022-07-26T11:28:53.441Z,26.80
2022-07-26T11:31:50.737Z,27.10
2022-07-26T11:34:22.380Z,27.20
2022-07-26T11:36:51.176Z,27.10
2022-07-26T11:39:22.582Z,26.70
2022-07-26T11:41:50.520Z,26.80
2022-07-26T11:44:19.617Z,27.10
2022-07-26T11:46:47.873Z,27.00
2022-07-26T11:49:20.482Z,27.00
2022-07-26T11:51:56.234Z,27.50
2022-07-26T11:54:25.201Z,26.40
2022-07-26T11:56:54.294Z,26.30
2022-07-26T11:59:23.273Z,26.10
2022-07-26T12:01:51.199Z,26.70
2022-07-26T12:04:29.547Z,26.80
2022-07-26T12:06:59.277Z,27.10
2022-07-26T12:09:47.382Z,26.80
2022-07-26T12:12:24.142Z,27.10
2022-07-26T12:15:05.750Z,27.20
2022-07-26T12:17:35.786Z,26.80
2022-07-26T12:20:17.860Z,27.00
2022-07-26T12:22:57.597Z,27.00
2022-07-26T12:25:26.593Z,27.40
2022-07-26T12:27:53.927Z,27.60
2022-07-26T12:30:21.593Z,27.60
2022-07-26T12:32:51.900Z,28.10
2022-07-26T12:35:32.213Z,28.00
2022-07-26T12:37:59.910Z,27.30
2022-07-26T12:40:28.842Z,27.20
2022-07-26T12:43:02.809Z,26.80
2022-07-26T12:45:34.975Z,28.00
2022-07-26T12:48:06.841Z,28.50
2022-07-26T12:50:34.060Z,28.80
2022-07-26T12:53:03.208Z,29.20
2022-07-26T12:55:30.724Z,29.40
2022-07-26T12:57:58.374Z,29.10
2022-07-26T13:00:25.885Z,28.90
2022-07-26T13:02:56.941Z,29.30
2022-07-26T13:05:24.421Z,29.50
2022-07-26T13:07:52.448Z,28.90
2022-07-26T13:10:33.023Z,29.90
2022-07-26T13:13:01.111Z,30.10
2022-07-26T13:15:35.069Z,29.90
2022-07-26T13:18:07.020Z,30.20
2022-07-26T13:20:34.735Z,29.70
2022-07-26T13:23:03.073Z,29.40
2022-07-26T13:25:33.496Z,30.10
2022-07-26T13:28:07.802Z,30.70
2022-07-26T13:30:38.048Z,30.80
2022-07-26T13:33:05.487Z,31.00
2022-07-26T13:35:35.190Z,31.10
2022-07-26T13:38:08.256Z,30.40
2022-07-26T13:40:48.254Z,30.10
2022-07-26T13:43:28.717Z,29.90
2022-07-26T13:45:55.944Z,29.20
2022-07-26T13:48:23.187Z,30.00
2022-07-26T13:50:50.438Z,30.00
2022-07-26T13:53:20.885Z,30.00
2022-07-26T13:56:37.959Z,28.60
2022-07-26T13:59:36.496Z,29.20
2022-07-26T14:02:04.938Z,29.30
2022-07-26T14:04:32.459Z,29.60
2022-07-26T14:06:59.719Z,29.70
2022-07-26T14:09:26.909Z,29.70
2022-07-26T14:11:54.244Z,30.20
2022-07-26T14:14:21.455Z,29.60
2022-07-26T14:16:49.500Z,28.10
2022-07-26T14:19:17.292Z,27.60
2022-07-26T14:21:47.561Z,28.60
2022-07-26T14:24:28.098Z,28.30
2022-07-26T14:26:59.180Z,28.50
2022-07-26T14:29:27.638Z,28.70
2022-07-26T14:31:55.093Z,29.00
2022-07-26T14:34:22.462Z,28.70
2022-07-26T14:36:49.799Z,29.20
2022-07-26T14:39:16.983Z,29.10
2022-07-26T14:41:44.319Z,29.00
2022-07-26T14:44:11.952Z,29.10
2022-07-26T14:46:40.022Z,29.20
2022-07-26T14:49:07.352Z,29.00
2022-07-26T14:51:35.984Z,28.50
2022-07-26T14:54:03.415Z,28.70
2022-07-26T14:56:30.844Z,29.30
2022-07-26T14:58:58.156Z,29.40
2022-07-26T15:01:25.433Z,28.90
2022-07-26T15:03:52.691Z,28.90
2022-07-26T15:06:20.000Z,28.60
2022-07-26T15:08:47.241Z,28.40
2022-07-26T15:11:15.500Z,28.80
2022-07-26T15:13:43.050Z,29.20
2022-07-26T15:16:10.414Z,29.50
2022-07-26T15:18:37.811Z,30.10
2022-07-26T15:21:06.034Z,30.80
2022-07-26T15:23:33.254Z,31.30
2022-07-26T15:26:00.448Z,31.50
2022-07-26T15:28:27.688Z,31.50
2022-07-26T15:30:54.937Z,31.70
2022-07-26T15:33:22.673Z,32.10
2022-07-26T15:35:50.668Z,32.50
2022-07-26T15:38:17.886Z,32.50
2022-07-26T15:40:45.169Z,31.50
2022-07-26T15:43:12.448Z,30.30
2022-07-26T15:45:41.260Z,30.20
2022-07-26T15:48:16.122Z,30.30
2022-07-26T15:50:50.011Z,30.00
2022-07-26T15:53:17.256Z,28.90
2022-07-26T15:55:44.518Z,28.40
2022-07-26T15:58:13.126Z,28.60
2022-07-26T16:00:40.366Z,28.90
2022-07-26T16:03:07.655Z,28.90
2022-07-26T16:05:34.904Z,28.30
2022-07-26T16:08:02.178Z,28.30
2022-07-26T16:10:29.403Z,28.90
2022-07-26T16:12:56.657Z,28.90
2022-07-26T16:15:23.846Z,28.50
2022-07-26T16:17:51.072Z,28.80
2022-07-26T16:20:19.434Z,28.40
2022-07-26T16:22:47.832Z,28.10
2022-07-26T16:25:16.044Z,28.30
2022-07-26T16:27:43.971Z,28.60
2022-07-26T16:30:15.359Z,27.80
2022-07-26T16:32:43.129Z,27.80
2022-07-26T16:35:10.870Z,27.90
2022-07-26T16:37:38.353Z,27.60
2022-07-26T16:40:09.832Z,27.20
2022-07-26T16:42:37.194Z,27.60
2022-07-26T16:45:05.035Z,28.00
2022-07-26T16:47:32.300Z,28.30
2022-07-26T16:49:59.736Z,28.10
2022-07-26T16:52:27.313Z,27.20
2022-07-26T16:54:54.746Z,27.80
2022-07-26T16:57:22.457Z,27.90
2022-07-26T16:59:49.763Z,27.90
2022-07-26T17:02:17.142Z,27.60
2022-07-26T17:04:44.404Z,27.60
2022-07-26T17:07:26.809Z,27.50
2022-07-26T17:09:54.991Z,27.80
2022-07-26T17:12:23.133Z,27.40
2022-07-26T17:14:50.643Z,27.60
2022-07-26T17:17:17.849Z,27.50
2022-07-26T17:19:45.083Z,27.70
2022-07-26T17:22:12.378Z,27.70
2022-07-26T17:24:39.648Z,27.30
2022-07-26T17:27:06.959Z,27.50
2022-07-26T17:29:34.163Z,27.80
2022-07-26T17:32:01.612Z,27.90
2022-07-26T17:34:28.819Z,27.50
2022-07-26T17:37:00.103Z,27.00
2022-07-26T17:39:51.587Z,27.10
2022-07-26T17:42:23.282Z,27.10
2022-07-26T17:44:51.514Z,26.80
2022-07-26T17:47:29.724Z,26.70
2022-07-26T17:50:33.992Z,26.70
2022-07-26T17:52:56.567Z,26.60
2022-07-26T17:55:24.456Z,26.20
2022-07-26T17:57:52.737Z,26.60
2022-07-26T18:00:22.246Z,26.20
2022-07-26T18:02:50.301Z,26.30
2022-07-26T18:05:25.139Z,26.50
2022-07-26T18:07:55.453Z,26.40
2022-07-26T18:10:27.855Z,26.30
2022-07-26T18:12:59.383Z,26.10
2022-07-26T18:15:27.031Z,25.90
2022-07-26T18:17:54.913Z,25.80
2022-07-26T18:20:26.058Z,26.00
2022-07-26T18:22:54.918Z,26.10
2022-07-26T18:25:22.829Z,26.10
2022-07-26T18:27:50.763Z,26.30
2022-07-26T18:30:18.692Z,25.90
2022-07-26T18:32:47.025Z,25.80
2022-07-26T18:35:14.878Z,25.70
2022-07-26T18:37:46.857Z,25.70
2022-07-26T18:40:14.502Z,25.90
2022-07-26T18:42:44.868Z,25.80
2022-07-26T18:45:15.676Z,25.50
2022-07-26T18:47:43.634Z,25.50
2022-07-26T18:50:12.612Z,25.50
2022-07-26T18:52:45.494Z,25.60
2022-07-26T18:55:29.338Z,25.40
2022-07-26T18:58:04.629Z,25.60
2022-07-26T19:00:36.821Z,25.70
2022-07-26T19:03:06.152Z,25.60
2022-07-26T19:05:38.048Z,25.40
2022-07-26T19:08:08.533Z,25.40
2022-07-26T19:10:38.223Z,25.30
2022-07-26T19:13:16.249Z,25.20
2022-07-26T19:15:47.168Z,25.30
2022-07-26T19:18:18.356Z,25.10
2022-07-26T19:20:49.112Z,25.00
2022-07-26T19:23:19.702Z,25.10
2022-07-26T19:25:50.249Z,24.90
2022-07-26T19:28:18.210Z,25.00
2022-07-26T19:30:49.025Z,24.60
2022-07-26T19:33:17.232Z,24.60
2022-07-26T19:35:46.993Z,24.50
2022-07-26T19:38:21.961Z,24.30
2022-07-26T19:40:53.226Z,23.90
2022-07-26T19:43:31.849Z,23.80
2022-07-26T19:46:02.202Z,24.00
2022-07-26T19:48:44.543Z,24.00
2022-07-26T19:51:18.995Z,24.40
2022-07-26T19:53:50.035Z,24.10
2022-07-26T19:56:17.387Z,24.30
2022-07-26T19:58:46.214Z,24.30
2022-07-26T20:01:13.849Z,24.60
2022-07-26T20:03:41.190Z,24.20
2022-07-26T20:06:08.833Z,24.00
2022-07-26T20:08:36.214Z,24.30
2022-07-26T20:11:03.512Z,24.50
2022-07-26T20:13:30.826Z,24.40
2022-07-26T20:15:58.089Z,24.30
2022-07-26T20:18:27.129Z,24.20
2022-07-26T20:20:56.199Z,24.20
2022-07-26T20:23:23.957Z,24.30
2022-07-26T20:25:51.523Z,24.60
2022-07-26T20:28:18.884Z,24.20
2022-07-26T20:30:48.221Z,24.20
2022-07-26T20:33:16.461Z,24.40
2022-07-26T20:35:44.005Z,24.20
2022-07-26T20:38:11.290Z,24.20
2022-07-26T20:40:38.605Z,24.10
2022-07-26T20:43:06.721Z,23.80
2022-07-26T20:45:34.013Z,23.80
2022-07-26T20:48:01.564Z,24.00
2022-07-26T20:50:29.022Z,23.90
2022-07-26T20:52:56.305Z,23.90
2022-07-26T20:55:24.004Z,23.60
2022-07-26T20:57:51.276Z,23.50
2022-07-26T21:00:18.839Z,23.40
2022-07-26T21:02:46.323Z,23.30
2022-07-26T21:05:13.930Z,23.20
2022-07-26T21:07:56.010Z,23.00
2022-07-26T21:10:27.992Z,23.30
2022-07-26T21:12:57.451Z,22.90
2022-07-26T21:15:24.789Z,22.80
2022-07-26T21:17:53.061Z,22.80
2022-07-26T21:20:20.507Z,23.00
2022-07-26T21:22:47.862Z,22.60
2022-07-26T21:25:15.181Z,22.70
2022-07-26T21:27:42.463Z,22.80
2022-07-26T21:30:10.126Z,22.90
2022-07-26T21:32:37.337Z,22.70
2022-07-26T21:35:05.047Z,22.70
2022-07-26T21:37:32.327Z,22.30
2022-07-26T21:39:59.970Z,22.30
2022-07-26T21:42:28.339Z,22.00
2022-07-26T21:44:55.525Z,21.90
2022-07-26T21:47:22.782Z,22.20
2022-07-26T21:49:50.033Z,22.10
2022-07-26T21:52:17.263Z,22.10
2022-07-26T21:54:44.485Z,21.90
2022-07-26T21:57:11.702Z,21.70
2022-07-26T21:59:38.927Z,21.80
2022-07-26T22:02:06.327Z,21.80
2022-07-26T22:04:33.574Z,21.60
2022-07-26T22:07:00.864Z,21.60
2022-07-26T22:09:28.146Z,21.40
2022-07-26T22:11:55.376Z,21.20
2022-07-26T22:14:22.656Z,21.30
2022-07-26T22:16:49.906Z,21.70
2022-07-26T22:19:17.199Z,21.20
2022-07-26T22:21:44.424Z,21.30
2022-07-26T22:24:11.904Z,21.10
2022-07-26T22:26:41.991Z,21.20
2022-07-26T22:29:09.911Z,21.30
2022-07-26T22:31:37.365Z,21.30
2022-07-26T22:34:04.620Z,21.30
2022-07-26T22:36:31.805Z,21.00
2022-07-26T22:38:58.998Z,21.30
2022-07-26T22:41:26.205Z,21.30
2022-07-26T22:43:59.220Z,21.70
2022-07-26T22:46:29.197Z,21.90
2022-07-26T22:48:56.928Z,22.00
2022-07-26T22:51:24.216Z,22.10
2022-07-26T22:53:51.414Z,22.30
2022-07-26T22:56:19.800Z,22.00
2022-07-26T22:58:47.652Z,21.90
2022-07-26T23:01:16.584Z,22.00
2022-07-26T23:03:44.559Z,22.10
2022-07-26T23:06:31.403Z,22.30
2022-07-26T23:08:59.470Z,22.50
2022-07-26T23:11:26.718Z,22.60
2022-07-26T23:13:58.798Z,22.60
2022-07-26T23:16:26.816Z,22.50
2022-07-26T23:18:54.119Z,22.50
2022-07-26T23:21:21.312Z,22.50
2022-07-26T23:23:48.517Z,22.60
2022-07-26T23:26:15.727Z,22.70
2022-07-26T23:28:42.964Z,22.70
2022-07-26T23:31:11.474Z,22.90
2022-07-26T23:33:51.264Z,23.00
2022-07-26T23:36:22.647Z,22.70
2022-07-26T23:38:49.924Z,22.60
2022-07-26T23:41:17.172Z,22.50
2022-07-26T23:43:44.371Z,22.20
2022-07-26T23:46:11.642Z,22.10
2022-07-26T23:48:38.919Z,22.10
2022-07-26T23:51:06.163Z,22.10
2022-07-26T23:53:33.362Z,22.10
2022-07-26T23:56:00.528Z,22.20
2022-07-26T23:58:27.852Z,22.50
